Time;durP1;ratioP1;P1;durP2;ratioP2;P2;SDS_P1;SDS_P2;PMS_P1;PMS_P2;Temp;Humidity;BMP_temperature;BMP_pressure;BME280_temperature;BME280_humidity;BME280_pressure;Samples;Min_cycle;Max_cycle;Signal;HPM_P1;HPM_P2
2023/10/06 00:01:52;;;;;;;6.43;1.97;;;8.60;99.90;7.90;100843;;;;584671;244;24144;-80
2023/10/06 00:04:18;;;;;;;5.20;1.83;;;8.60;99.90;7.90;100844;;;;576026;246;24102;-80
2023/10/06 00:06:48;;;;;;;5.20;1.70;;;8.60;99.90;7.90;100847;;;;571957;246;24096;-80
2023/10/06 00:09:31;;;;;;;7.63;2.40;;;8.60;99.90;7.90;100849;;;;575431;246;24077;-80
2023/10/06 00:11:59;;;;;;;3.87;2.20;;;8.60;99.90;7.90;100847;;;;580740;246;24169;-78
2023/10/06 00:14:48;;;;;;;2.93;1.80;;;8.60;99.90;7.90;100853;;;;575192;246;24077;-79
2023/10/06 00:17:21;;;;;;;5.43;2.20;;;8.60;99.90;7.80;100846;;;;571345;246;24126;-79
2023/10/06 00:19:44;;;;;;;3.87;2.00;;;8.60;99.90;7.90;100851;;;;571044;246;24139;-80
2023/10/06 00:24:55;;;;;;;4.77;1.93;;;8.70;99.90;7.90;100854;;;;571678;246;24049;-79
2023/10/06 00:27:24;;;;;;;4.83;2.50;;;8.60;99.90;7.90;100843;;;;575162;246;24114;-80
2023/10/06 00:29:48;;;;;;;3.00;1.70;;;8.70;99.90;7.90;100848;;;;574922;246;24071;-80
2023/10/06 00:32:27;;;;;;;5.37;1.80;;;8.70;99.90;7.90;100849;;;;575173;246;24063;-80
2023/10/06 00:35:23;;;;;;;3.10;2.00;;;8.70;99.90;7.90;100839;;;;571681;246;24087;-80
2023/10/06 00:37:29;;;;;;;3.43;1.80;;;8.60;99.90;7.90;100844;;;;574575;246;24127;-80
2023/10/06 00:39:58;;;;;;;3.17;2.13;;;8.70;99.90;7.90;100839;;;;575191;246;24131;-80
2023/10/06 00:42:27;;;;;;;5.97;1.90;;;8.70;99.90;7.90;100855;;;;575165;246;24055;-80
2023/10/06 00:44:55;;;;;;;2.17;1.97;;;8.70;99.90;8.00;100851;;;;574702;246;24063;-80
2023/10/06 00:47:23;;;;;;;2.87;1.90;;;8.70;99.90;7.90;100854;;;;569948;246;35081;-82
2023/10/06 00:49:55;;;;;;;3.03;1.50;;;8.70;99.90;7.90;100837;;;;574681;246;24072;-81
2023/10/06 00:52:19;;;;;;;1.73;1.10;;;8.70;99.90;7.90;100839;;;;574876;246;24103;-79
2023/10/06 00:54:46;;;;;;;4.67;1.47;;;8.70;99.90;7.90;100848;;;;574841;246;24106;-79
2023/10/06 00:57:18;;;;;;;1.90;1.20;;;8.70;99.90;7.90;100837;;;;575180;246;24048;-79
2023/10/06 00:59:42;;;;;;;3.07;1.33;;;8.70;99.90;7.90;100835;;;;570886;246;24065;-80
2023/10/06 01:02:11;;;;;;;1.70;1.60;;;8.70;99.90;7.90;100843;;;;575278;246;24105;-80
2023/10/06 01:04:44;;;;;;;2.67;1.20;;;8.70;99.90;8.00;100837;;;;574882;246;24054;-80
2023/10/06 01:07:08;;;;;;;4.23;1.67;;;8.70;99.90;7.90;100846;;;;575122;246;24137;-81
2023/10/06 01:09:34;;;;;;;1.57;1.40;;;8.70;99.90;8.00;100837;;;;575365;246;24125;-80
2023/10/06 01:12:06;;;;;;;2.47;1.23;;;8.70;99.90;8.00;100853;;;;575125;244;24144;-81
2023/10/06 01:14:34;;;;;;;1.80;1.70;;;8.70;99.90;8.00;100850;;;;572468;246;24120;-80
2023/10/06 01:17:16;;;;;;;2.33;1.23;;;8.70;99.90;8.00;100848;;;;576036;246;24076;-81
2023/10/06 01:19:53;;;;;;;2.87;1.63;;;8.70;99.90;8.00;100847;;;;576392;244;24077;-81
2023/10/06 01:22:41;;;;;;;2.43;1.97;;;8.70;99.90;8.00;100854;;;;571966;246;24065;-81
2023/10/06 01:24:54;;;;;;;3.10;2.30;;;8.70;99.90;8.00;100860;;;;570687;246;24063;-82
2023/10/06 01:27:26;;;;;;;3.10;1.90;;;8.70;99.90;8.00;100869;;;;575728;246;25180;-80
2023/10/06 01:30:07;;;;;;;3.33;1.57;;;8.70;99.90;8.00;100863;;;;575565;245;24092;-80
2023/10/06 01:32:19;;;;;;;6.00;2.10;;;8.70;99.90;8.00;100860;;;;580525;244;24058;-81
2023/10/06 01:34:50;;;;;;;3.77;2.27;;;8.80;99.90;8.00;100861;;;;575330;246;24093;-79
2023/10/06 01:37:16;;;;;;;5.57;2.03;;;8.70;99.90;8.00;100856;;;;575456;246;24076;-79
2023/10/06 01:39:43;;;;;;;3.37;1.93;;;8.70;99.90;8.00;100851;;;;575712;245;24071;-79
2023/10/06 01:42:17;;;;;;;3.53;1.67;;;8.70;99.90;8.00;100862;;;;575924;246;24131;-79
2023/10/06 01:44:38;;;;;;;4.13;2.37;;;8.70;99.90;7.90;100856;;;;575744;246;24067;-80
2023/10/06 01:47:06;;;;;;;3.40;2.07;;;8.50;99.90;7.90;100865;;;;575557;246;24078;-80
2023/10/06 01:49:37;;;;;;;2.07;1.87;;;8.70;99.90;7.90;100866;;;;575217;246;24042;-81
2023/10/06 01:52:08;;;;;;;4.60;2.20;;;8.70;99.90;7.90;100874;;;;575419;246;24055;-80
2023/10/06 01:54:40;;;;;;;5.27;2.10;;;8.70;99.90;8.00;100864;;;;571478;246;24067;-79
2023/10/06 01:57:06;;;;;;;2.87;2.00;;;8.60;99.90;8.00;100870;;;;575176;246;24115;-80
2023/10/06 01:59:32;;;;;;;4.77;2.20;;;8.70;99.90;8.00;100870;;;;571346;246;24063;-80
2023/10/06 02:02:01;;;;;;;1.50;1.40;;;8.70;99.90;8.00;100865;;;;575024;246;24094;-80
2023/10/06 02:04:38;;;;;;;4.90;2.27;;;8.60;99.90;8.00;100871;;;;575202;246;24079;-80
2023/10/06 02:06:57;;;;;;;2.37;1.80;;;8.70;99.90;8.00;100875;;;;579772;246;24109;-80
2023/10/06 02:09:25;;;;;;;5.97;2.30;;;8.70;99.90;7.90;100879;;;;575119;246;24076;-80
2023/10/06 02:11:55;;;;;;;3.80;1.63;;;8.70;99.90;8.00;100874;;;;575302;246;24079;-80
2023/10/06 02:14:21;;;;;;;3.67;1.60;;;8.70;99.90;8.00;100871;;;;574918;246;24095;-80
2023/10/06 02:16:49;;;;;;;1.77;1.53;;;8.70;99.90;8.00;100873;;;;575206;246;24059;-81
2023/10/06 02:19:17;;;;;;;4.13;1.63;;;8.70;99.90;8.00;100879;;;;571245;246;24051;-80
2023/10/06 02:21:50;;;;;;;5.23;1.60;;;8.70;99.90;7.90;100878;;;;575133;246;24044;-80
2023/10/06 02:24:16;;;;;;;3.87;1.57;;;8.60;99.90;7.90;100881;;;;575753;245;24068;-81
2023/10/06 02:26:43;;;;;;;3.93;1.70;;;8.70;99.90;7.90;100880;;;;576404;245;24058;-80
2023/10/06 02:29:22;;;;;;;7.17;2.10;;;8.60;99.90;7.90;100885;;;;576120;246;24066;-79
2023/10/06 02:31:51;;;;;;;2.63;1.90;;;8.60;99.90;7.80;100893;;;;575993;246;24118;-81
2023/10/06 02:34:29;;;;;;;3.77;2.03;;;8.60;99.90;7.80;100892;;;;575496;246;24075;-81
2023/10/06 02:36:44;;;;;;;1.63;1.40;;;8.60;99.90;7.80;100900;;;;573774;246;24106;-80
2023/10/06 02:39:16;;;;;;;2.17;1.63;;;8.50;99.90;7.80;100895;;;;575224;246;24133;-80
2023/10/06 02:41:40;;;;;;;4.20;2.00;;;8.50;99.90;7.80;100898;;;;570201;246;35036;-79
2023/10/06 02:44:22;;;;;;;1.40;1.30;;;8.60;99.90;7.80;100908;;;;574976;245;24147;-81
2023/10/06 02:46:44;;;;;;;1.73;1.30;;;8.60;99.90;7.90;100901;;;;571612;248;24114;-81
2023/10/06 02:49:12;;;;;;;1.67;1.27;;;8.60;99.90;8.00;100895;;;;571912;248;24131;-80
2023/10/06 02:51:49;;;;;;;1.43;1.30;;;8.80;99.90;8.00;100900;;;;572414;246;24113;-80
2023/10/06 02:56:47;;;;;;;1.47;1.37;;;8.80;99.90;8.10;100907;;;;575433;246;24110;-80
2023/10/06 02:59:21;;;;;;;3.53;1.77;;;8.80;99.90;8.10;100896;;;;575852;245;24090;-80
2023/10/06 03:01:55;;;;;;;5.30;1.57;;;8.90;99.90;8.20;100902;;;;580510;246;24163;-80
2023/10/06 03:04:26;;;;;;;2.30;1.50;;;8.90;99.90;8.20;100902;;;;580150;244;25120;-80
2023/10/06 03:06:58;;;;;;;6.23;1.83;;;9.00;99.90;8.20;100908;;;;579855;246;24072;-80
2023/10/06 03:09:48;;;;;;;3.27;1.80;;;9.00;99.90;8.30;100908;;;;574746;246;24088;-80
2023/10/06 03:11:58;;;;;;;2.07;1.63;;;9.00;99.90;8.30;100899;;;;572411;246;24074;-80
2023/10/06 03:14:24;;;;;;;3.30;1.40;;;9.00;99.90;8.40;100902;;;;574532;246;24108;-80
2023/10/06 03:16:54;;;;;;;4.57;1.90;;;9.10;99.90;8.40;100901;;;;574658;246;24138;-81
2023/10/06 03:19:25;;;;;;;3.47;1.73;;;9.00;99.90;8.40;100896;;;;575128;246;24078;-81
2023/10/06 03:21:50;;;;;;;2.47;1.50;;;9.10;99.90;8.40;100898;;;;574988;246;24077;-80
2023/10/06 03:24:20;;;;;;;1.87;1.70;;;9.10;99.90;8.40;100891;;;;575188;246;24080;-80
2023/10/06 03:26:46;;;;;;;1.30;1.20;;;9.10;99.90;8.40;100897;;;;575056;246;24140;-80
2023/10/06 03:29:28;;;;;;;1.30;1.20;;;9.20;99.90;8.50;100891;;;;575240;245;24050;-80
2023/10/06 03:31:45;;;;;;;2.67;1.90;;;9.20;99.90;8.50;100895;;;;574705;246;24090;-81
2023/10/06 03:34:16;;;;;;;3.37;1.20;;;9.20;99.90;8.50;100887;;;;575281;246;24087;-81
2023/10/06 03:36:52;;;;;;;1.37;1.27;;;9.20;99.90;8.50;100879;;;;576298;245;24086;-80
2023/10/06 03:39:30;;;;;;;1.67;1.33;;;9.20;99.90;8.50;100882;;;;575888;246;24172;-80
2023/10/06 03:42:00;;;;;;;1.77;1.20;;;9.30;99.90;8.50;100875;;;;571573;246;24058;-80
2023/10/06 03:44:30;;;;;;;2.17;1.70;;;9.30;99.90;8.60;100873;;;;575356;246;24172;-80
2023/10/06 03:47:07;;;;;;;1.50;1.40;;;9.30;99.90;8.60;100884;;;;575380;246;25217;-80
2023/10/06 03:49:33;;;;;;;1.90;1.10;;;9.30;99.90;8.60;100890;;;;575095;246;24150;-80
2023/10/06 03:51:57;;;;;;;3.10;1.10;;;9.30;99.90;8.60;100888;;;;575537;246;24110;-81
2023/10/06 03:54:25;;;;;;;5.20;1.37;;;9.30;99.90;8.70;100890;;;;575495;245;24116;-81
2023/10/06 03:56:53;;;;;;;5.77;1.70;;;9.40;99.90;8.70;100883;;;;575411;245;24157;-81
2023/10/06 03:59:25;;;;;;;3.43;1.40;;;9.40;99.90;8.70;100887;;;;575396;246;24090;-80
2023/10/06 04:01:52;;;;;;;3.13;1.30;;;9.40;99.90;8.70;100897;;;;575636;246;24050;-80
2023/10/06 04:04:22;;;;;;;5.97;2.03;;;9.40;99.90;8.70;100886;;;;579491;245;35063;-80
2023/10/06 04:06:47;;;;;;;5.23;1.57;;;9.40;99.90;8.80;100891;;;;567921;248;24132;-80
2023/10/06 04:09:27;;;;;;;1.13;1.03;;;9.50;99.90;8.80;100895;;;;571888;247;24119;-80
2023/10/06 04:11:42;;;;;;;2.97;1.70;;;9.50;99.90;8.80;100896;;;;571028;249;24079;-79
2023/10/06 04:14:09;;;;;;;1.37;1.23;;;9.50;99.90;8.80;100907;;;;571790;249;24134;-80
2023/10/06 04:16:44;;;;;;;8.43;1.77;;;9.50;99.90;8.80;100899;;;;571672;248;24141;-79
2023/10/06 04:19:05;;;;;;;1.70;1.27;;;9.50;99.90;8.80;100904;;;;570450;249;24140;-81
2023/10/06 04:21:34;;;;;;;5.03;1.57;;;9.50;99.90;8.80;100905;;;;570641;249;25232;-79
2023/10/06 04:24:01;;;;;;;3.87;1.47;;;9.50;99.90;8.80;100912;;;;570617;249;24061;-81
2023/10/06 04:26:30;;;;;;;2.17;1.30;;;9.50;99.90;8.80;100912;;;;570683;249;24083;-79
2023/10/06 04:28:59;;;;;;;1.83;1.33;;;9.50;99.90;8.80;100917;;;;570654;249;24084;-80
2023/10/06 04:31:25;;;;;;;1.40;1.30;;;9.50;99.90;8.80;100913;;;;570594;249;24141;-80
2023/10/06 04:33:53;;;;;;;2.43;1.50;;;9.50;99.90;8.80;100919;;;;570634;249;24129;-80
2023/10/06 04:36:23;;;;;;;4.20;1.23;;;9.50;99.90;8.80;100924;;;;570695;249;24057;-79
2023/10/06 04:38:49;;;;;;;2.40;1.60;;;9.50;99.90;8.80;100918;;;;570627;249;24119;-79
2023/10/06 04:41:20;;;;;;;3.27;1.60;;;9.50;99.90;8.80;100925;;;;578007;246;24058;-80
2023/10/06 04:43:45;;;;;;;3.40;1.33;;;9.50;99.90;8.80;100926;;;;571559;246;24066;-79
2023/10/06 04:46:13;;;;;;;1.43;1.27;;;9.50;99.90;8.80;100918;;;;574926;246;24089;-80
2023/10/06 04:48:41;;;;;;;3.33;1.40;;;9.50;99.90;8.80;100915;;;;572289;245;24266;-80
2023/10/06 04:51:13;;;;;;;2.70;1.47;;;9.50;99.90;8.80;100915;;;;581610;245;24037;-80
2023/10/06 04:53:39;;;;;;;1.93;1.70;;;9.50;99.90;8.80;100905;;;;572624;246;24075;-78
2023/10/06 04:56:07;;;;;;;5.23;1.70;;;9.50;99.90;8.80;100912;;;;575851;246;24046;-79
2023/10/06 04:58:44;;;;;;;6.93;1.50;;;9.50;99.90;8.80;100906;;;;583241;241;24096;-79
2023/10/06 05:01:03;;;;;;;5.77;1.80;;;9.40;99.90;8.80;100905;;;;571540;246;24110;-80
2023/10/06 05:03:41;;;;;;;4.90;1.90;;;9.50;99.90;8.80;100901;;;;575679;246;24111;-80
2023/10/06 05:06:00;;;;;;;2.77;1.33;;;9.50;99.90;8.80;100901;;;;575204;246;24108;-80
2023/10/06 05:08:27;;;;;;;2.23;1.40;;;9.50;99.90;8.80;100904;;;;575274;242;24134;-80
2023/10/06 05:10:55;;;;;;;1.40;1.30;;;9.50;99.90;8.80;100901;;;;575416;246;24097;-79
2023/10/06 05:13:22;;;;;;;2.70;1.60;;;9.50;99.90;8.80;100896;;;;575403;246;24140;-79
2023/10/06 05:15:50;;;;;;;4.40;1.20;;;9.50;99.90;8.80;100887;;;;575436;245;24041;-81
2023/10/06 05:18:18;;;;;;;4.53;1.77;;;9.50;99.90;8.80;100902;;;;575458;246;24061;-80
2023/10/06 05:20:46;;;;;;;2.90;1.17;;;9.60;99.90;8.90;100901;;;;571422;246;24108;-81
2023/10/06 05:23:17;;;;;;;2.13;1.03;;;9.60;99.90;8.90;100906;;;;574959;246;24119;-79
2023/10/06 05:25:47;;;;;;;3.90;1.80;;;9.60;99.90;8.90;100913;;;;574673;246;24151;-79
2023/10/06 05:28:18;;;;;;;5.23;1.30;;;9.60;99.90;9.00;100911;;;;574810;246;24103;-79
2023/10/06 05:30:47;;;;;;;2.90;1.67;;;9.70;99.90;9.00;100912;;;;570832;246;24101;-80
2023/10/06 05:33:15;;;;;;;1.50;1.40;;;9.60;99.90;9.00;100918;;;;574848;246;24129;-79
2023/10/06 05:35:43;;;;;;;3.60;1.67;;;9.70;99.90;9.00;100923;;;;574771;246;24063;-79
2023/10/06 05:38:13;;;;;;;2.50;1.40;;;9.70;99.90;9.00;100931;;;;574895;246;24104;-79
2023/10/06 05:40:41;;;;;;;2.57;1.60;;;9.70;99.90;9.00;100922;;;;575570;246;24075;-79
2023/10/06 05:43:11;;;;;;;2.57;1.47;;;9.70;99.90;9.00;100924;;;;580285;246;24146;-79
2023/10/06 05:45:39;;;;;;;2.17;1.43;;;9.70;99.90;9.00;100931;;;;575479;246;25169;-79
2023/10/06 05:48:11;;;;;;;2.77;1.40;;;9.70;99.90;9.10;100933;;;;574993;246;24052;-79
2023/10/06 05:50:40;;;;;;;1.30;1.20;;;9.80;99.90;9.10;100924;;;;575582;246;24070;-79
2023/10/06 05:53:19;;;;;;;5.87;1.67;;;9.80;99.90;9.20;100928;;;;575541;246;25156;-80
2023/10/06 05:55:45;;;;;;;2.33;1.63;;;9.80;99.90;9.30;100922;;;;583113;246;25114;-79
2023/10/06 05:58:15;;;;;;;6.77;1.73;;;10.40;99.90;9.30;100920;;;;574722;244;24067;-79
2023/10/06 06:00:50;;;;;;;7.70;1.93;;;10.00;99.90;9.40;100919;;;;576589;243;24063;-79
2023/10/06 06:03:11;;;;;;;2.43;1.10;;;10.10;99.90;9.60;100928;;;;581125;244;24104;-79
2023/10/06 06:05:38;;;;;;;6.23;1.30;;;10.20;99.90;9.70;100928;;;;576474;243;24074;-80
2023/10/06 06:08:09;;;;;;;1.30;1.10;;;10.30;99.90;10.00;100940;;;;575965;242;24124;-80
2023/10/06 06:10:38;;;;;;;5.43;1.93;;;11.10;99.90;10.60;100939;;;;575645;246;24112;-79
2023/10/06 06:13:05;;;;;;;4.43;1.80;;;11.10;99.90;12.10;100943;;;;576017;246;24058;-79
2023/10/06 06:15:35;;;;;;;4.13;2.20;;;12.50;99.90;13.70;100957;;;;576222;246;24036;-80
2023/10/06 06:18:01;;;;;;;2.67;1.77;;;13.90;99.90;14.80;100955;;;;575921;243;24098;-80
2023/10/06 06:20:29;;;;;;;4.40;2.00;;;15.10;99.90;16.10;100959;;;;575870;246;24066;-80
2023/10/06 06:23:02;;;;;;;5.10;2.25;;;16.30;99.90;17.30;100961;;;;570897;246;46092;-79
2023/10/06 06:25:31;;;;;;;2.53;1.80;;;17.60;99.90;18.70;100966;;;;575628;242;24158;-81
2023/10/06 06:27:59;;;;;;;4.70;1.97;;;19.00;99.90;19.80;100968;;;;575098;246;24068;-80
2023/10/06 06:30:24;;;;;;;6.70;1.83;;;20.10;99.90;20.50;100965;;;;580052;246;24077;-80
2023/10/06 06:32:54;;;;;;;5.57;2.50;;;20.90;99.90;20.60;100973;;;;577472;244;35059;-80
2023/10/06 06:35:32;;;;;;;6.10;2.37;;;21.30;99.90;20.00;100962;;;;583879;240;24073;-79
2023/10/06 06:38:02;;;;;;;3.83;1.90;;;20.70;99.90;19.40;100976;;;;576998;246;24088;-80
2023/10/06 06:40:29;;;;;;;5.73;2.83;;;20.20;99.90;18.60;100967;;;;581851;244;24058;-81
2023/10/06 06:43:00;;;;;;;4.47;1.87;;;19.70;99.90;17.80;100969;;;;577394;246;24081;-80
2023/10/06 06:45:25;;;;;;;2.63;1.87;;;19.00;99.90;17.70;100968;;;;575686;244;24086;-80
2023/10/06 06:47:53;;;;;;;6.53;2.13;;;18.60;99.90;18.50;100959;;;;575544;246;24036;-80
2023/10/06 06:50:21;;;;;;;3.07;1.73;;;19.10;99.90;19.10;100960;;;;575654;246;24129;-80
2023/10/06 06:52:52;;;;;;;4.37;1.70;;;19.70;99.90;19.20;100955;;;;571617;246;23074;-80
2023/10/06 06:55:18;;;;;;;2.87;1.90;;;19.90;99.90;19.20;100945;;;;584139;246;24117;-79
2023/10/06 06:57:49;;;;;;;2.50;1.63;;;19.90;99.90;18.90;100940;;;;575345;246;24058;-80
2023/10/06 07:00:16;;;;;;;8.93;2.90;;;19.80;99.90;18.50;100936;;;;575229;246;23069;-80
2023/10/06 07:02:44;;;;;;;10.47;2.37;;;19.40;99.90;18.10;100933;;;;574770;246;24113;-81
2023/10/06 07:05:14;;;;;;;2.03;1.93;;;19.00;99.90;17.70;100928;;;;575315;246;23100;-79
2023/10/06 07:07:45;;;;;;;6.50;2.33;;;18.70;99.90;17.50;100917;;;;583708;246;23081;-80
2023/10/06 07:10:14;;;;;;;3.77;1.97;;;18.40;99.90;17.20;100915;;;;575180;245;24065;-80
2023/10/06 07:12:41;;;;;;;8.83;2.73;;;18.10;99.90;17.00;100921;;;;572508;243;24108;-80
2023/10/06 07:15:18;;;;;;;6.37;2.67;;;17.90;99.90;16.80;100916;;;;581184;243;24090;-80
2023/10/06 07:17:53;;;;;;;14.03;3.20;;;17.30;99.90;16.40;100908;;;;576368;246;24097;-80
2023/10/06 07:20:32;;;;;;;9.17;2.70;;;17.30;99.90;16.10;100915;;;;581075;246;24067;-80
2023/10/06 07:22:52;;;;;;;7.80;3.20;;;17.00;99.90;15.90;100908;;;;575612;246;24095;-79
2023/10/06 07:25:19;;;;;;;8.33;3.30;;;16.50;99.90;15.70;100911;;;;576073;243;24082;-80
2023/10/06 07:27:48;;;;;;;12.50;2.90;;;16.20;99.90;15.50;100902;;;;571253;246;24059;-79
2023/10/06 07:30:19;;;;;;;10.27;3.07;;;16.10;99.90;15.30;100903;;;;575351;244;24063;-79
2023/10/06 07:32:44;;;;;;;6.50;2.20;;;16.00;99.90;15.30;100913;;;;571036;246;24074;-79
2023/10/06 07:35:15;;;;;;;8.20;3.83;;;16.00;99.90;15.30;100907;;;;582494;244;24099;-79
2023/10/06 07:37:45;;;;;;;4.57;2.63;;;15.90;99.90;15.20;100908;;;;575666;246;24102;-80
2023/10/06 07:40:18;;;;;;;11.33;2.63;;;15.70;99.90;15.10;100910;;;;575526;246;24079;-80
2023/10/06 07:42:46;;;;;;;11.57;2.60;;;15.60;99.90;15.00;100912;;;;575363;246;24094;-80
2023/10/06 07:45:13;;;;;;;4.07;2.33;;;15.60;99.90;14.90;100914;;;;575974;244;24059;-80
2023/10/06 07:47:45;;;;;;;5.23;2.47;;;15.50;99.90;14.90;100908;;;;582717;244;24035;-81
2023/10/06 07:50:12;;;;;;;15.47;3.53;;;15.50;99.90;15.00;100907;;;;584008;246;24088;-81
2023/10/06 07:52:37;;;;;;;4.37;2.37;;;15.60;99.90;15.00;100906;;;;570960;246;24063;-80
2023/10/06 07:55:09;;;;;;;2.77;2.07;;;15.60;99.90;15.00;100900;;;;575589;246;25123;-80
2023/10/06 07:57:36;;;;;;;5.63;1.73;;;15.60;99.90;15.00;100901;;;;580150;244;24198;-80
2023/10/06 08:00:06;;;;;;;3.80;1.83;;;15.60;99.90;15.00;100900;;;;575376;243;24106;-79
2023/10/06 08:02:30;;;;;;;7.47;1.90;;;15.60;99.90;15.00;100894;;;;575036;246;24079;-79
2023/10/06 08:04:59;;;;;;;4.33;1.70;;;15.60;99.90;15.10;100892;;;;575128;245;24028;-79
2023/10/06 08:07:30;;;;;;;6.90;2.00;;;15.70;99.90;15.10;100894;;;;575401;243;24091;-81
2023/10/06 08:10:02;;;;;;;3.27;1.83;;;15.70;99.90;15.20;100883;;;;575232;243;24100;-80
2023/10/06 08:12:28;;;;;;;4.20;1.60;;;15.80;99.90;15.30;100878;;;;575598;246;24070;-79
2023/10/06 08:14:56;;;;;;;6.70;1.70;;;16.00;99.90;15.50;100887;;;;575228;246;24047;-79
2023/10/06 08:17:27;;;;;;;6.70;1.43;;;16.10;99.90;15.60;100885;;;;575418;246;24056;-80
2023/10/06 08:19:54;;;;;;;2.20;1.77;;;16.20;99.90;15.80;100879;;;;575469;243;24104;-79
2023/10/06 08:22:22;;;;;;;6.13;1.83;;;16.40;99.90;15.90;100875;;;;576013;243;24120;-81
2023/10/06 08:24:47;;;;;;;2.47;1.60;;;16.50;99.90;15.90;100869;;;;576696;243;24058;-81
2023/10/06 08:27:21;;;;;;;3.80;1.80;;;16.60;99.90;15.90;100870;;;;576087;244;24044;-80
2023/10/06 08:29:44;;;;;;;2.83;2.00;;;16.60;99.90;15.90;100873;;;;576221;240;24100;-80
2023/10/06 08:32:12;;;;;;;4.50;2.13;;;16.50;99.90;15.90;100876;;;;575841;246;24100;-80
2023/10/06 08:34:40;;;;;;;6.27;1.63;;;16.50;99.90;15.90;100874;;;;576105;246;24090;-81
2023/10/06 08:37:11;;;;;;;7.10;1.87;;;16.60;99.90;15.90;100876;;;;575800;246;24112;-82
2023/10/06 08:39:38;;;;;;;7.23;2.00;;;16.60;99.90;15.80;100873;;;;575750;243;24076;-81
2023/10/06 08:42:06;;;;;;;3.00;1.70;;;16.50;99.90;15.90;100865;;;;575748;243;24103;-80
2023/10/06 08:44:31;;;;;;;3.37;1.87;;;16.50;99.90;15.90;100867;;;;580298;246;24085;-80
2023/10/06 08:47:01;;;;;;;9.70;1.97;;;16.50;99.90;15.80;100857;;;;571412;244;24050;-80
2023/10/06 08:49:27;;;;;;;2.37;0.90;;;16.50;99.90;15.80;100857;;;;573584;243;24043;-79
2023/10/06 08:51:55;;;;;;;8.07;2.40;;;16.40;99.90;15.70;100860;;;;570955;245;35023;-80
2023/10/06 08:54:23;;;;;;;7.67;2.50;;;16.30;99.90;15.60;100854;;;;575804;243;24051;-80
2023/10/06 08:56:51;;;;;;;8.03;1.90;;;16.20;99.90;15.50;100852;;;;575887;244;24100;-80
2023/10/06 08:59:20;;;;;;;2.20;1.70;;;16.10;99.90;15.40;100846;;;;575697;246;24108;-79
2023/10/06 09:01:49;;;;;;;4.63;2.33;;;16.00;99.90;15.40;100830;;;;575299;242;24060;-80
2023/10/06 09:04:16;;;;;;;4.17;1.90;;;16.00;99.90;15.30;100831;;;;575402;243;24078;-80
2023/10/06 09:07:09;;;;;;;5.93;2.10;;;16.00;99.90;15.40;100830;;;;575352;246;24056;-78
2023/10/06 09:09:40;;;;;;;6.33;2.27;;;16.00;99.90;15.50;100844;;;;584180;242;24068;-79
2023/10/06 09:12:04;;;;;;;1.90;1.60;;;16.10;99.90;15.50;100835;;;;575000;246;24072;-77
2023/10/06 09:14:32;;;;;;;5.30;2.30;;;16.10;99.90;15.50;100825;;;;584327;243;24106;-78
2023/10/06 09:17:05;;;;;;;3.93;1.83;;;16.20;99.90;15.50;100827;;;;575675;246;24090;-78
2023/10/06 09:19:49;;;;;;;5.53;2.00;;;16.20;99.90;15.50;100830;;;;575455;246;25118;-78
2023/10/06 09:22:17;;;;;;;6.77;2.10;;;16.10;99.90;15.50;100818;;;;579035;243;24076;-79
2023/10/06 09:24:45;;;;;;;3.50;2.17;;;16.10;99.90;15.50;100825;;;;576105;240;24064;-80
2023/10/06 09:27:23;;;;;;;5.83;1.80;;;16.10;99.90;15.50;100822;;;;570318;246;24102;-80
2023/10/06 09:29:51;;;;;;;5.87;2.20;;;16.10;99.90;15.50;100820;;;;581559;246;24125;-80
2023/10/06 09:32:21;;;;;;;8.23;1.80;;;16.10;99.90;15.60;100820;;;;574893;246;24107;-79
2023/10/06 09:34:53;;;;;;;8.50;2.63;;;16.20;99.90;15.70;100822;;;;576358;245;24033;-80
2023/10/06 09:37:20;;;;;;;6.37;2.07;;;16.30;99.90;15.80;100820;;;;576348;243;24087;-80
2023/10/06 09:39:57;;;;;;;2.83;1.93;;;16.70;99.90;16.10;100806;;;;571526;243;24104;-81
2023/10/06 09:42:29;;;;;;;8.67;2.43;;;16.70;99.90;16.40;100816;;;;575743;246;24059;-81
2023/10/06 09:44:56;;;;;;;6.43;1.83;;;16.80;99.90;16.70;100816;;;;579897;244;24113;-80
2023/10/06 09:47:25;;;;;;;5.37;1.97;;;17.30;99.90;16.90;100811;;;;575589;246;24059;-80
2023/10/06 09:49:52;;;;;;;3.63;1.50;;;17.50;99.90;17.00;100804;;;;581148;246;24088;-79
2023/10/06 09:52:21;;;;;;;3.17;1.77;;;17.70;99.90;17.10;100804;;;;575941;246;24124;-78
2023/10/06 09:54:48;;;;;;;5.77;2.00;;;17.70;99.90;17.00;100800;;;;571488;244;24110;-79
2023/10/06 09:57:16;;;;;;;6.93;2.20;;;17.70;99.90;17.00;100795;;;;573606;245;24063;-80
2023/10/06 09:59:44;;;;;;;5.90;1.73;;;17.70;99.90;16.90;100795;;;;580793;244;24168;-79
2023/10/06 10:02:12;;;;;;;4.93;1.93;;;17.60;99.90;16.70;100782;;;;573655;246;24036;-80
2023/10/06 10:04:40;;;;;;;5.07;1.90;;;17.40;99.90;16.70;100794;;;;582634;243;24054;-80
2023/10/06 10:07:07;;;;;;;6.13;2.00;;;17.40;99.90;16.80;100784;;;;575589;246;24051;-80
2023/10/06 10:09:35;;;;;;;4.70;1.80;;;17.40;99.90;16.80;100776;;;;580253;244;24059;-80
2023/10/06 10:12:44;;;;;;;6.73;2.00;;;17.40;99.90;16.80;100775;;;;575274;245;24104;-80
2023/10/06 10:15:16;;;;;;;10.40;2.70;;;17.40;99.90;16.90;100781;;;;579967;246;24040;-80
2023/10/06 10:17:58;;;;;;;4.10;2.23;;;17.50;99.90;16.80;100771;;;;566726;248;24101;-81
2023/10/06 10:20:25;;;;;;;5.37;2.63;;;17.40;99.90;16.80;100760;;;;572975;246;24101;-80
2023/10/06 10:22:59;;;;;;;7.27;2.53;;;17.40;99.90;16.80;100755;;;;575653;246;24116;-80
2023/10/06 10:25:26;;;;;;;9.30;2.43;;;17.40;99.90;16.70;100756;;;;575531;243;24085;-79
2023/10/06 10:28:27;;;;;;;3.40;2.53;;;17.30;99.90;16.60;100758;;;;584330;246;24053;-79
2023/10/06 10:31:02;;;;;;;5.67;2.60;;;17.30;99.90;16.40;100757;;;;580103;246;24068;-80
2023/10/06 10:33:29;;;;;;;3.50;2.60;;;17.10;99.90;16.20;100747;;;;575602;242;24066;-79
2023/10/06 10:36:19;;;;;;;4.70;2.53;;;16.80;99.90;16.10;100727;;;;575817;244;24102;-80
2023/10/06 10:38:56;;;;;;;6.67;2.47;;;16.70;99.90;16.20;100727;;;;588233;244;24117;-81
2023/10/06 10:41:27;;;;;;;5.83;3.03;;;16.80;99.90;16.20;100726;;;;584050;246;24108;-79
2023/10/06 10:43:56;;;;;;;4.53;2.50;;;16.80;99.90;16.30;100715;;;;575508;246;24062;-79
2023/10/06 10:46:42;;;;;;;4.87;2.70;;;16.90;99.90;16.50;100717;;;;577274;245;24125;-79
2023/10/06 10:49:13;;;;;;;3.73;2.67;;;17.00;99.90;16.60;100708;;;;581986;246;24075;-80
2023/10/06 10:51:55;;;;;;;5.90;2.70;;;17.20;99.90;16.60;100709;;;;573721;246;24039;-79
2023/10/06 10:54:29;;;;;;;2.93;2.73;;;17.20;99.90;16.50;100709;;;;576553;244;24057;-79
2023/10/06 10:57:02;;;;;;;7.13;2.70;;;17.10;99.90;16.40;100699;;;;571877;246;24055;-79
2023/10/06 10:59:31;;;;;;;3.43;2.20;;;17.00;99.90;16.40;100701;;;;576638;243;24090;-79
2023/10/06 11:01:53;;;;;;;2.87;2.20;;;17.00;99.90;16.50;100703;;;;576829;243;24039;-80
2023/10/06 11:04:31;;;;;;;4.03;2.13;;;17.00;99.90;16.60;100693;;;;575834;245;24059;-80
2023/10/06 11:07:15;;;;;;;3.93;2.23;;;17.10;99.90;16.50;100689;;;;576091;244;24056;-79
2023/10/06 11:09:40;;;;;;;7.07;3.00;;;17.10;99.90;16.60;100686;;;;575076;244;24054;-78
2023/10/06 11:12:05;;;;;;;2.70;2.33;;;17.20;99.90;16.50;100687;;;;584812;243;24111;-79
2023/10/06 11:14:33;;;;;;;4.67;2.47;;;17.20;99.90;16.50;100683;;;;579908;246;24036;-79
2023/10/06 11:17:05;;;;;;;5.30;2.90;;;17.00;99.90;16.30;100686;;;;571535;246;24044;-80
2023/10/06 11:19:32;;;;;;;3.30;2.67;;;16.90;99.90;16.20;100669;;;;582014;244;24057;-80
2023/10/06 11:22:14;;;;;;;5.17;3.17;;;16.70;99.90;16.00;100673;;;;580519;243;24050;-78
2023/10/06 11:24:44;;;;;;;2.90;2.70;;;16.70;99.90;15.90;100668;;;;580986;243;24044;-79
2023/10/06 11:27:22;;;;;;;5.10;3.03;;;16.50;99.90;15.80;100659;;;;572924;246;24059;-79
2023/10/06 11:29:57;;;;;;;6.80;3.17;;;16.40;99.90;15.70;100647;;;;573215;246;24057;-79
2023/10/06 11:32:21;;;;;;;3.40;2.80;;;16.20;99.90;15.60;100646;;;;574796;246;24069;-79
2023/10/06 11:34:48;;;;;;;4.80;3.20;;;16.20;99.90;15.50;100643;;;;574930;246;24065;-79